Time;durP1;ratioP1;P1;durP2;ratioP2;P2;SDS_P1;SDS_P2;PMS_P1;PMS_P2;Temp;Humidity;BMP_temperature;BMP_pressure;BME280_temperature;BME280_humidity;BME280_pressure;Samples;Min_cycle;Max_cycle;Signal;HPM_P1;HPM_P2
2021/11/20 00:00:11;;;;;;;11.83;2.33;;;10.50;99.90;;;;;;5270848;28;20228;-71
2021/11/20 00:02:44;;;;;;;16.03;2.33;;;10.60;99.90;;;;;;5269308;28;20334;-69
2021/11/20 00:05:22;;;;;;;12.77;2.00;;;10.60;99.90;;;;;;5270964;28;20306;-70
2021/11/20 00:07:57;;;;;;;15.37;2.70;;;10.60;99.90;;;;;;5269776;28;20184;-70
2021/11/20 00:10:34;;;;;;;16.53;2.07;;;10.50;99.90;;;;;;5270444;28;20243;-70
2021/11/20 00:13:08;;;;;;;14.30;3.33;;;10.50;99.90;;;;;;5270949;28;20226;-71
2021/11/20 00:15:54;;;;;;;12.53;2.10;;;10.40;99.90;;;;;;5270823;28;20314;-68
2021/11/20 00:18:31;;;;;;;17.80;3.80;;;10.40;99.90;;;;;;5271247;28;20560;-70
2021/11/20 00:21:14;;;;;;;12.00;2.23;;;10.40;99.90;;;;;;5272427;28;20659;-71
2021/11/20 00:23:50;;;;;;;14.27;2.60;;;10.40;99.90;;;;;;5270564;28;20193;-73
2021/11/20 00:26:28;;;;;;;21.50;3.17;;;10.40;99.90;;;;;;5269476;28;20674;-70
2021/11/20 00:32:01;;;;;;;23.43;4.30;;;10.40;99.90;;;;;;5270545;28;20246;-69
2021/11/20 00:34:36;;;;;;;16.30;3.30;;;10.40;99.90;;;;;;5270232;28;20211;-71
2021/11/20 00:37:09;;;;;;;17.00;3.03;;;10.30;99.90;;;;;;5270727;28;20560;-71
2021/11/20 00:39:41;;;;;;;17.57;3.10;;;10.30;99.90;;;;;;5270387;28;20319;-69
2021/11/20 00:42:14;;;;;;;18.57;3.23;;;10.20;99.90;;;;;;5270126;28;20709;-69
2021/11/20 00:44:52;;;;;;;19.67;3.60;;;10.20;99.90;;;;;;5272130;28;20664;-68
2021/11/20 00:47:27;;;;;;;23.63;3.60;;;10.10;99.90;;;;;;5269853;28;20524;-71
2021/11/20 00:50:00;;;;;;;18.90;3.20;;;10.10;99.90;;;;;;5270401;28;20229;-70
2021/11/20 00:52:32;;;;;;;20.27;4.00;;;10.10;99.90;;;;;;5269817;28;20319;-71
2021/11/20 00:55:05;;;;;;;19.57;3.60;;;10.00;99.90;;;;;;5269331;28;20204;-70
2021/11/20 00:57:37;;;;;;;21.50;3.80;;;9.90;99.90;;;;;;5270078;28;20228;-69
2021/11/20 01:00:12;;;;;;;16.50;2.93;;;9.90;99.90;;;;;;5270066;28;20247;-68
2021/11/20 01:02:45;;;;;;;19.80;3.20;;;9.90;99.90;;;;;;5269717;28;20316;-69
2021/11/20 01:05:18;;;;;;;18.07;3.57;;;9.80;99.90;;;;;;5270123;28;20204;-69
2021/11/20 01:07:50;;;;;;;20.47;3.70;;;9.70;99.90;;;;;;5268349;28;20235;-69
2021/11/20 01:10:28;;;;;;;17.40;3.20;;;9.80;99.90;;;;;;5269134;28;20211;-71
2021/11/20 01:13:01;;;;;;;21.83;3.83;;;9.80;99.90;;;;;;5270128;28;20236;-69
2021/11/20 01:15:41;;;;;;;24.60;3.63;;;9.80;99.90;;;;;;5269916;28;20204;-70
2021/11/20 01:18:17;;;;;;;22.80;4.20;;;9.70;99.90;;;;;;5269639;28;20224;-69
2021/11/20 01:20:50;;;;;;;17.37;3.27;;;9.70;99.90;;;;;;5270580;28;20225;-70
2021/11/20 01:23:28;;;;;;;23.53;3.90;;;9.60;99.90;;;;;;5270990;28;20224;-74
2021/11/20 01:26:03;;;;;;;16.27;3.03;;;9.60;99.90;;;;;;5269427;28;20204;-69
2021/11/20 01:28:37;;;;;;;22.37;4.03;;;9.50;99.90;;;;;;5268774;28;20311;-71
2021/11/20 01:31:12;;;;;;;17.43;3.70;;;9.50;99.90;;;;;;5268936;28;20211;-71
2021/11/20 01:33:46;;;;;;;24.90;3.93;;;9.50;99.90;;;;;;5269929;28;20274;-68
2021/11/20 01:36:22;;;;;;;22.53;3.93;;;9.40;99.90;;;;;;5269647;28;20215;-72
2021/11/20 01:39:00;;;;;;;20.77;3.83;;;9.40;99.90;;;;;;5269505;28;20231;-69
2021/11/20 01:41:33;;;;;;;26.33;3.70;;;9.40;99.90;;;;;;5271716;28;20204;-70
2021/11/20 01:44:28;;;;;;;21.60;3.97;;;9.30;99.90;;;;;;5255910;28;20232;-71
2021/11/20 01:47:29;;;;;;;19.70;3.70;;;9.30;99.90;;;;;;5268639;28;20210;-70
2021/11/20 01:50:11;;;;;;;26.30;3.50;;;9.30;99.90;;;;;;5253536;28;20231;-71
2021/11/20 01:52:55;;;;;;;25.17;3.77;;;9.30;99.90;;;;;;5254015;28;20212;-70
2021/11/20 01:55:40;;;;;;;30.27;4.77;;;9.30;99.90;;;;;;5251523;28;20200;-71
2021/11/20 01:58:25;;;;;;;22.57;3.70;;;9.30;99.90;;;;;;5252530;28;20215;-72
2021/11/20 02:01:06;;;;;;;28.67;4.50;;;9.20;99.90;;;;;;5251288;28;20651;-72
2021/11/20 02:03:45;;;;;;;30.00;4.33;;;9.30;99.90;;;;;;5252154;28;20760;-69
2021/11/20 02:06:27;;;;;;;24.03;4.03;;;9.20;99.90;;;;;;5252332;28;20547;-71
2021/11/20 02:09:17;;;;;;;26.67;4.77;;;9.20;99.90;;;;;;5253144;28;20552;-68
2021/11/20 02:12:12;;;;;;;24.33;4.27;;;9.20;99.90;;;;;;5251735;28;20236;-70
2021/11/20 02:14:48;;;;;;;25.13;4.40;;;9.20;99.90;;;;;;5251913;28;20229;-70
2021/11/20 02:17:28;;;;;;;24.80;4.13;;;9.10;99.90;;;;;;5251889;28;20208;-68
2021/11/20 02:20:08;;;;;;;21.87;3.50;;;9.10;99.90;;;;;;5250490;28;20240;-69
2021/11/20 02:22:39;;;;;;;28.57;4.93;;;9.10;99.90;;;;;;5251857;28;20189;-71
2021/11/20 02:25:12;;;;;;;29.63;4.47;;;9.10;99.90;;;;;;5250568;28;20563;-70
2021/11/20 02:27:51;;;;;;;24.93;3.77;;;9.10;99.90;;;;;;5252083;28;20201;-70
2021/11/20 02:30:32;;;;;;;34.53;4.80;;;9.10;99.90;;;;;;5251838;28;20658;-73
2021/11/20 02:33:15;;;;;;;23.03;4.53;;;9.00;99.90;;;;;;5250704;28;20209;-71
2021/11/20 02:35:56;;;;;;;27.00;4.33;;;9.00;99.90;;;;;;5251290;28;20239;-71
2021/11/20 02:38:53;;;;;;;25.70;4.47;;;9.00;99.90;;;;;;5251474;28;20189;-71
2021/11/20 02:41:28;;;;;;;35.03;5.23;;;9.00;99.90;;;;;;5251327;28;20255;-71
2021/11/20 02:44:02;;;;;;;30.77;4.27;;;9.10;99.90;;;;;;5251344;28;20239;-69
2021/11/20 02:46:38;;;;;;;28.20;4.90;;;9.00;99.90;;;;;;5250275;28;20224;-70
2021/11/20 02:49:11;;;;;;;30.60;6.20;;;9.00;99.90;;;;;;5252472;28;20208;-69
2021/11/20 02:51:47;;;;;;;24.77;4.63;;;9.00;99.90;;;;;;5251307;28;20225;-70
2021/11/20 02:54:23;;;;;;;21.20;4.27;;;9.00;99.90;;;;;;5250474;28;20201;-68
2021/11/20 02:57:18;;;;;;;19.70;3.60;;;8.90;99.90;;;;;;5251231;28;20321;-68
2021/11/20 02:59:51;;;;;;;27.67;6.43;;;8.90;99.90;;;;;;5251372;28;20663;-69
2021/11/20 03:02:24;;;;;;;21.33;4.67;;;8.90;99.90;;;;;;5250162;28;20224;-72
2021/11/20 03:04:56;;;;;;;28.47;4.57;;;8.90;99.90;;;;;;5251129;28;20201;-71
2021/11/20 03:07:28;;;;;;;22.13;4.10;;;8.90;99.90;;;;;;5249908;28;20208;-70
2021/11/20 03:10:00;;;;;;;27.20;4.27;;;8.90;99.90;;;;;;5249971;28;20205;-70
2021/11/20 03:12:36;;;;;;;32.53;4.90;;;8.80;99.90;;;;;;5237030;28;20225;-71
2021/11/20 03:15:10;;;;;;;31.07;4.93;;;8.80;99.90;;;;;;5251604;28;20200;-70
2021/11/20 03:17:42;;;;;;;27.90;4.33;;;8.80;99.90;;;;;;5249936;28;20239;-70
2021/11/20 03:20:16;;;;;;;27.57;4.97;;;8.80;99.90;;;;;;5250302;28;20228;-69
2021/11/20 03:22:50;;;;;;;23.73;4.00;;;8.80;99.90;;;;;;5250971;28;20204;-72
2021/11/20 03:25:23;;;;;;;29.57;5.00;;;8.80;99.90;;;;;;5250351;28;20554;-72
2021/11/20 03:27:55;;;;;;;32.07;4.57;;;8.80;99.90;;;;;;5251532;28;20240;-70
2021/11/20 03:30:28;;;;;;;26.70;4.70;;;8.70;99.90;;;;;;5251971;28;20201;-70
2021/11/20 03:33:01;;;;;;;24.83;4.50;;;8.70;99.90;;;;;;5251082;28;20236;-69
2021/11/20 03:35:35;;;;;;;30.03;5.30;;;8.70;99.90;;;;;;5250092;28;20208;-70
2021/11/20 03:38:08;;;;;;;37.53;6.13;;;8.70;99.90;;;;;;5250197;28;20319;-71
2021/11/20 03:40:41;;;;;;;25.07;4.63;;;8.70;99.90;;;;;;5250262;28;20228;-72
2021/11/20 03:43:13;;;;;;;30.87;4.70;;;8.70;99.90;;;;;;5250279;28;20232;-70
2021/11/20 03:45:46;;;;;;;34.60;5.33;;;8.70;99.90;;;;;;5250042;28;20219;-68
2021/11/20 03:48:21;;;;;;;25.30;4.80;;;8.70;99.90;;;;;;5249210;28;20228;-71
2021/11/20 03:50:53;;;;;;;25.77;4.13;;;8.70;99.90;;;;;;5249953;28;20298;-72
2021/11/20 03:53:25;;;;;;;25.80;4.17;;;8.80;99.90;;;;;;5251147;28;20240;-70
2021/11/20 03:55:57;;;;;;;34.87;4.37;;;8.80;99.90;;;;;;5251291;28;20205;-68
2021/11/20 03:58:29;;;;;;;32.00;4.37;;;8.80;99.90;;;;;;5250000;28;20240;-69
2021/11/20 04:01:06;;;;;;;34.50;5.47;;;8.80;99.90;;;;;;5250333;28;20228;-72
2021/11/20 04:03:41;;;;;;;30.97;4.20;;;8.70;99.90;;;;;;5247799;28;20255;-68
2021/11/20 04:06:15;;;;;;;25.73;4.53;;;8.70;99.90;;;;;;5250028;28;20204;-69
2021/11/20 04:08:51;;;;;;;30.07;4.40;;;8.70;99.90;;;;;;5249658;28;20230;-68
2021/11/20 04:11:26;;;;;;;24.23;4.10;;;8.60;99.90;;;;;;5250196;28;20482;-70
2021/11/20 04:14:00;;;;;;;32.27;4.33;;;8.60;99.90;;;;;;5249637;28;20228;-72
2021/11/20 04:16:33;;;;;;;30.13;4.33;;;8.60;99.90;;;;;;5248750;28;20205;-71
2021/11/20 04:19:05;;;;;;;26.77;3.97;;;8.60;99.90;;;;;;5248638;28;20294;-70
2021/11/20 04:21:38;;;;;;;26.47;4.50;;;8.50;99.90;;;;;;5249912;28;20641;-72
2021/11/20 04:24:11;;;;;;;22.93;4.00;;;8.50;99.90;;;;;;5249882;28;20563;-68
2021/11/20 04:26:46;;;;;;;24.40;4.67;;;8.50;99.90;;;;;;5250060;28;20200;-71
2021/11/20 04:29:21;;;;;;;33.90;4.33;;;8.50;99.90;;;;;;5249799;28;20224;-74
2021/11/20 04:31:53;;;;;;;24.87;4.30;;;8.50;99.90;;;;;;5249184;28;20561;-68
2021/11/20 04:34:25;;;;;;;31.13;4.70;;;8.50;99.90;;;;;;5250815;28;20228;-72
2021/11/20 04:36:58;;;;;;;26.80;4.13;;;8.50;99.90;;;;;;5250125;28;20204;-72
2021/11/20 04:39:30;;;;;;;28.43;4.77;;;8.50;99.90;;;;;;5248466;28;20247;-69
2021/11/20 04:42:03;;;;;;;33.60;4.77;;;8.50;99.90;;;;;;5249515;28;20648;-73
2021/11/20 04:44:37;;;;;;;34.17;5.10;;;8.50;99.90;;;;;;5231800;28;20233;-70
2021/11/20 04:47:09;;;;;;;32.73;4.80;;;8.50;99.90;;;;;;5249414;28;20199;-72
2021/11/20 04:49:42;;;;;;;29.57;4.37;;;8.50;99.90;;;;;;5248384;28;20515;-72
2021/11/20 04:52:17;;;;;;;38.73;4.70;;;8.50;99.90;;;;;;5231993;28;20634;-68
2021/11/20 04:54:49;;;;;;;34.73;4.53;;;8.50;99.90;;;;;;5248127;28;20555;-67
2021/11/20 04:57:32;;;;;;;25.63;4.67;;;8.40;99.90;;;;;;5249742;28;20273;-71
2021/11/20 05:00:13;;;;;;;22.83;3.90;;;8.40;99.90;;;;;;5249276;28;20235;-71
2021/11/20 05:02:45;;;;;;;24.23;4.53;;;8.40;99.90;;;;;;5249320;28;20687;-71
2021/11/20 05:05:17;;;;;;;29.73;4.80;;;8.40;99.90;;;;;;5248888;28;20315;-72
2021/11/20 05:07:50;;;;;;;25.30;4.57;;;8.30;99.90;;;;;;5231258;28;20219;-70
2021/11/20 05:10:22;;;;;;;30.07;4.17;;;8.30;99.90;;;;;;5248731;28;20244;-71
2021/11/20 05:12:53;;;;;;;20.97;4.57;;;8.30;99.90;;;;;;5248542;28;20220;-71
2021/11/20 05:15:27;;;;;;;27.03;4.70;;;8.40;99.90;;;;;;5251731;28;20232;-74
2021/11/20 05:18:02;;;;;;;25.53;4.80;;;8.40;99.90;;;;;;5253248;28;20204;-71
2021/11/20 05:20:36;;;;;;;27.87;4.10;;;8.40;99.90;;;;;;5252769;28;20236;-71
2021/11/20 05:23:14;;;;;;;28.87;4.90;;;8.30;99.90;;;;;;5251836;28;20200;-72
2021/11/20 05:25:47;;;;;;;30.50;5.07;;;8.40;99.90;;;;;;5252919;28;20231;-73
2021/11/20 05:28:22;;;;;;;29.93;4.93;;;8.30;99.90;;;;;;5253056;28;20270;-71
2021/11/20 05:30:54;;;;;;;31.77;4.90;;;8.30;99.90;;;;;;5252854;28;20232;-69
2021/11/20 05:33:39;;;;;;;23.37;4.53;;;8.30;99.90;;;;;;5235004;28;20493;-72
2021/11/20 05:36:14;;;;;;;27.53;4.53;;;8.40;99.90;;;;;;5252497;28;20647;-72
2021/11/20 05:38:47;;;;;;;31.40;5.60;;;8.40;99.90;;;;;;5251740;28;20208;-69
2021/11/20 05:41:24;;;;;;;27.77;6.03;;;8.40;99.90;;;;;;5251264;28;20232;-69
2021/11/20 05:43:57;;;;;;;33.10;6.40;;;8.50;99.90;;;;;;5252469;28;20204;-70
2021/11/20 05:46:31;;;;;;;31.43;5.77;;;8.50;99.90;;;;;;5252130;28;20229;-71
2021/11/20 05:49:03;;;;;;;24.17;4.90;;;8.40;99.90;;;;;;5252026;28;20196;-67
2021/11/20 05:51:37;;;;;;;26.37;5.33;;;8.40;99.90;;;;;;5252481;28;20524;-68
2021/11/20 05:54:09;;;;;;;33.53;5.57;;;8.40;99.90;;;;;;5235999;28;20322;-68
2021/11/20 05:56:41;;;;;;;27.53;4.60;;;8.40;99.90;;;;;;5255540;28;20233;-68
2021/11/20 05:59:27;;;;;;;26.23;5.50;;;8.40;99.90;;;;;;5252226;28;20300;-72
2021/11/20 06:02:00;;;;;;;32.60;5.70;;;8.30;99.90;;;;;;5252164;28;20644;-71
2021/11/20 06:04:33;;;;;;;33.37;4.80;;;8.30;99.90;;;;;;5250893;28;20552;-69
2021/11/20 06:07:05;;;;;;;35.30;4.73;;;8.30;99.90;;;;;;5251417;28;20221;-70
2021/11/20 06:09:41;;;;;;;33.37;4.97;;;8.30;99.90;;;;;;5251240;28;20227;-71
2021/11/20 06:12:13;;;;;;;32.87;4.80;;;8.30;99.90;;;;;;5252169;28;20228;-68
2021/11/20 06:14:45;;;;;;;36.33;5.67;;;8.30;99.90;;;;;;5251643;28;20211;-69
2021/11/20 06:17:20;;;;;;;27.87;4.70;;;8.30;99.90;;;;;;5251516;28;20239;-67
2021/11/20 06:19:52;;;;;;;30.23;4.40;;;8.30;99.90;;;;;;5251928;28;20204;-73
2021/11/20 06:22:26;;;;;;;33.37;5.27;;;8.30;99.90;;;;;;5251357;28;20732;-71
2021/11/20 06:24:58;;;;;;;28.63;4.30;;;8.30;99.90;;;;;;5250463;28;20201;-71
2021/11/20 06:27:30;;;;;;;23.03;4.37;;;8.40;99.90;;;;;;5249488;28;20267;-70
2021/11/20 06:30:10;;;;;;;23.93;4.73;;;8.40;99.90;;;;;;5251730;28;20201;-67
2021/11/20 06:32:43;;;;;;;30.43;5.63;;;8.40;99.90;;;;;;5251880;28;20240;-71
2021/11/20 06:35:18;;;;;;;23.10;4.77;;;8.40;99.90;;;;;;5253343;28;20200;-70
2021/11/20 06:37:50;;;;;;;23.10;4.10;;;8.40;99.90;;;;;;5254240;28;20232;-71
2021/11/20 06:40:29;;;;;;;31.37;4.83;;;8.50;99.90;;;;;;5253365;28;20212;-73
2021/11/20 06:43:03;;;;;;;24.50;4.80;;;8.50;99.90;;;;;;5235237;28;20655;-73
2021/11/20 06:45:38;;;;;;;26.53;4.43;;;8.50;99.90;;;;;;5251662;28;20224;-74
2021/11/20 06:48:11;;;;;;;25.43;4.83;;;8.50;99.90;;;;;;5251213;28;20621;-69
2021/11/20 06:50:44;;;;;;;19.47;4.20;;;8.50;99.90;;;;;;5250450;28;20262;-69
2021/11/20 06:53:16;;;;;;;31.60;4.33;;;8.60;99.90;;;;;;5249820;28;20240;-69
2021/11/20 06:55:49;;;;;;;18.37;4.20;;;8.60;99.90;;;;;;5250003;28;20647;-68
2021/11/20 06:58:41;;;;;;;26.43;4.30;;;8.70;99.90;;;;;;5250958;28;20243;-72
2021/11/20 07:01:14;;;;;;;32.87;5.03;;;8.70;99.90;;;;;;5250786;28;20217;-72
2021/11/20 07:03:56;;;;;;;36.87;5.33;;;8.70;99.90;;;;;;5250450;28;20224;-69
2021/11/20 07:06:39;;;;;;;28.07;4.10;;;8.80;99.90;;;;;;5250795;28;20185;-72
2021/11/20 07:09:11;;;;;;;26.73;4.10;;;8.80;99.90;;;;;;5251037;28;20228;-70
2021/11/20 07:11:46;;;;;;;26.30;4.63;;;8.80;99.90;;;;;;5250853;28;20200;-70
2021/11/20 07:14:21;;;;;;;34.50;5.53;;;8.80;99.90;;;;;;5253636;28;20596;-69
2021/11/20 07:16:54;;;;;;;24.97;5.23;;;8.80;99.90;;;;;;5251877;28;20207;-73
2021/11/20 07:19:26;;;;;;;26.17;5.63;;;8.80;99.90;;;;;;5250465;28;20339;-69
2021/11/20 07:21:58;;;;;;;28.63;4.40;;;8.90;99.90;;;;;;5249479;28;20563;-69
2021/11/20 07:24:33;;;;;;;25.90;4.57;;;8.90;99.90;;;;;;5250230;28;20239;-70
2021/11/20 07:27:08;;;;;;;26.57;4.23;;;8.90;99.90;;;;;;5250380;28;20196;-71
2021/11/20 07:29:40;;;;;;;32.60;4.80;;;9.00;99.90;;;;;;5249213;28;20239;-73
2021/11/20 07:32:12;;;;;;;24.67;4.40;;;9.00;99.90;;;;;;5249219;28;20204;-72
2021/11/20 07:34:49;;;;;;;26.30;4.47;;;9.00;99.90;;;;;;5250286;28;20251;-72
2021/11/20 07:37:22;;;;;;;28.60;4.30;;;9.00;99.90;;;;;;5249289;28;20227;-70
2021/11/20 07:39:56;;;;;;;31.37;5.63;;;9.00;99.90;;;;;;5249475;28;20232;-70
2021/11/20 07:42:28;;;;;;;28.00;4.87;;;8.90;99.90;;;;;;5250286;28;20681;-71
2021/11/20 07:45:06;;;;;;;26.77;4.30;;;8.90;99.90;;;;;;5232833;28;20232;-71
2021/11/20 07:47:38;;;;;;;23.20;4.07;;;8.90;99.90;;;;;;5250303;28;20204;-75
2021/11/20 07:50:12;;;;;;;34.73;4.23;;;8.90;99.90;;;;;;5248929;28;20232;-70
2021/11/20 07:52:47;;;;;;;31.90;4.43;;;9.00;99.90;;;;;;5250335;28;20211;-70
2021/11/20 07:55:19;;;;;;;25.10;4.30;;;9.00;99.90;;;;;;5252224;28;20235;-71
2021/11/20 07:57:51;;;;;;;23.20;4.53;;;9.00;99.90;;;;;;5251309;28;20216;-75
2021/11/20 08:00:25;;;;;;;30.93;4.40;;;9.10;99.90;;;;;;5250262;28;20247;-73
2021/11/20 08:02:57;;;;;;;24.13;4.00;;;9.20;99.90;;;;;;5248377;28;20248;-70
2021/11/20 08:05:30;;;;;;;27.47;4.97;;;9.20;99.90;;;;;;5249620;28;20224;-69
2021/11/20 08:08:04;;;;;;;30.27;4.17;;;9.30;99.90;;;;;;5250021;28;20201;-70
2021/11/20 08:10:37;;;;;;;28.43;3.97;;;9.30;99.90;;;;;;5248613;28;20233;-71
2021/11/20 08:13:11;;;;;;;26.23;4.67;;;9.30;99.90;;;;;;5248902;28;20513;-68
2021/11/20 08:15:44;;;;;;;23.90;4.13;;;9.40;99.90;;;;;;5248263;28;20228;-67
2021/11/20 08:18:16;;;;;;;27.73;4.43;;;9.40;99.90;;;;;;5248155;28;20288;-69
2021/11/20 08:20:48;;;;;;;31.40;4.77;;;9.40;99.90;;;;;;5247778;28;20236;-70
2021/11/20 08:23:21;;;;;;;24.40;3.97;;;9.40;99.90;;;;;;5249544;28;20236;-70
2021/11/20 08:25:53;;;;;;;27.27;4.67;;;9.40;99.90;;;;;;5249336;28;20242;-70
2021/11/20 08:28:26;;;;;;;27.50;4.90;;;9.40;99.90;;;;;;5248251;28;20206;-71
2021/11/20 08:31:00;;;;;;;19.27;4.33;;;9.40;99.90;;;;;;5248367;28;20243;-68
2021/11/20 08:33:33;;;;;;;22.30;4.20;;;9.40;99.90;;;;;;5250407;28;20214;-70
2021/11/20 08:36:11;;;;;;;27.53;4.93;;;9.40;99.90;;;;;;5248202;28;20220;-70
2021/11/20 08:38:43;;;;;;;24.83;4.37;;;9.40;99.90;;;;;;5248366;28;20261;-71
2021/11/20 08:41:18;;;;;;;26.10;5.20;;;9.40;99.90;;;;;;5247811;28;20236;-70
2021/11/20 08:43:52;;;;;;;25.10;4.67;;;9.40;99.90;;;;;;5248086;28;20614;-72
2021/11/20 08:46:24;;;;;;;25.73;4.17;;;9.50;99.90;;;;;;5249148;28;20230;-69
2021/11/20 08:48:57;;;;;;;31.00;5.17;;;9.60;99.90;;;;;;5247989;28;20189;-70
2021/11/20 08:51:30;;;;;;;27.23;4.67;;;9.60;99.90;;;;;;5252878;28;20201;-70
2021/11/20 08:54:03;;;;;;;32.20;4.70;;;9.70;99.90;;;;;;5235509;28;20227;-70
2021/11/20 08:56:39;;;;;;;24.00;4.07;;;9.80;99.90;;;;;;5252795;28;20213;-70
2021/11/20 08:59:14;;;;;;;23.07;4.30;;;9.80;99.90;;;;;;5252694;28;20203;-69
2021/11/20 09:01:54;;;;;;;19.77;3.63;;;9.80;99.90;;;;;;5251304;28;20223;-70
2021/11/20 09:04:54;;;;;;;23.03;3.90;;;9.90;99.90;;;;;;5255694;28;20605;-71
2021/11/20 09:07:35;;;;;;;21.03;4.23;;;9.90;99.90;;;;;;5252960;28;20315;-73
2021/11/20 09:10:19;;;;;;;27.93;3.80;;;9.90;99.90;;;;;;5253103;28;20185;-74
2021/11/20 09:13:09;;;;;;;26.67;4.00;;;9.90;99.90;;;;;;5253137;28;20554;-72
2021/11/20 09:15:55;;;;;;;25.97;4.40;;;9.80;99.90;;;;;;5251878;28;20189;-72
2021/11/20 09:18:29;;;;;;;20.07;4.40;;;9.90;99.90;;;;;;5251617;28;20706;-72
2021/11/20 09:21:03;;;;;;;30.17;4.53;;;9.90;99.90;;;;;;5251498;28;20212;-72
2021/11/20 09:23:35;;;;;;;24.10;4.13;;;9.90;99.90;;;;;;5252949;28;20229;-72
2021/11/20 09:26:18;;;;;;;29.20;5.67;;;9.90;99.90;;;;;;5251777;28;20648;-70
2021/11/20 09:28:59;;;;;;;23.70;4.67;;;10.00;99.90;;;;;;5252249;28;20557;-74
2021/11/20 09:31:33;;;;;;;34.17;5.13;;;10.00;99.90;;;;;;5252599;28;20208;-74
2021/11/20 09:34:06;;;;;;;36.37;4.33;;;10.00;99.90;;;;;;5252761;28;20232;-73
2021/11/20 09:36:38;;;;;;;25.43;4.33;;;10.00;99.90;;;;;;5239166;28;20495;-72
2021/11/20 09:39:13;;;;;;;24.33;3.77;;;10.10;99.90;;;;;;5252757;28;20248;-76
2021/11/20 09:42:00;;;;;;;22.93;4.27;;;10.00;99.90;;;;;;5251268;28;20663;-71
2021/11/20 09:44:38;;;;;;;25.27;4.50;;;10.00;99.90;;;;;;5252238;28;20558;-70
2021/11/20 09:47:28;;;;;;;19.97;4.23;;;10.00;99.90;;;;;;5252500;28;20200;-71
2021/11/20 09:50:28;;;;;;;18.63;4.60;;;10.00;99.90;;;;;;5252478;28;20315;-73
2021/11/20 09:53:04;;;;;;;19.07;3.63;;;10.20;99.90;;;;;;5248646;28;20617;-73
2021/11/20 09:55:49;;;;;;;24.10;4.47;;;10.30;99.90;;;;;;5251910;28;20203;-71
2021/11/20 09:58:27;;;;;;;21.07;4.23;;;10.40;99.90;;;;;;5251966;28;20201;-72
2021/11/20 10:01:21;;;;;;;24.80;3.87;;;10.50;99.90;;;;;;5251337;28;20203;-71
2021/11/20 10:04:13;;;;;;;26.20;4.17;;;10.50;99.90;;;;;;5252167;28;20232;-73
2021/11/20 10:06:54;;;;;;;17.83;3.33;;;10.60;99.90;;;;;;5251476;28;20220;-73
2021/11/20 10:09:32;;;;;;;22.67;3.77;;;10.70;99.90;;;;;;5250949;28;20234;-70
2021/11/20 10:12:26;;;;;;;21.53;3.63;;;10.80;99.90;;;;;;5251999;28;20200;-71
2021/11/20 10:15:18;;;;;;;16.73;3.77;;;10.90;99.90;;;;;;5251791;28;20244;-68
2021/11/20 10:18:00;;;;;;;25.47;4.93;;;11.00;99.90;;;;;;5251730;28;20223;-68
2021/11/20 10:20:44;;;;;;;22.23;3.43;;;11.10;99.90;;;;;;5250896;28;20232;-67
2021/11/20 10:23:49;;;;;;;25.50;4.40;;;11.00;99.90;;;;;;5251066;28;20518;-66
2021/11/20 10:26:43;;;;;;;19.07;4.27;;;11.00;99.90;;;;;;5251476;28;20644;-70
2021/11/20 10:29:14;;;;;;;21.97;3.67;;;10.90;99.90;;;;;;5251583;28;20327;-68
2021/11/20 10:32:28;;;;;;;26.13;3.47;;;10.90;99.90;;;;;;5255557;28;20197;-67
2021/11/20 10:35:13;;;;;;;23.27;4.23;;;11.00;99.90;;;;;;5242774;28;20211;-69
2021/11/20 10:38:04;;;;;;;22.80;3.90;;;10.90;99.90;;;;;;5250138;28;20196;-70
2021/11/20 10:40:51;;;;;;;17.77;3.30;;;10.90;99.90;;;;;;5247850;28;20244;-73
2021/11/20 10:43:36;;;;;;;26.60;4.17;;;10.90;99.90;;;;;;5248849;28;20659;-70
2021/11/20 10:46:20;;;;;;;21.67;3.90;;;11.00;99.90;;;;;;5249458;28;20687;-70
2021/11/20 10:49:22;;;;;;;22.03;4.17;;;11.00;99.90;;;;;;5248181;28;20219;-68
2021/11/20 10:52:09;;;;;;;24.83;4.00;;;11.00;99.90;;;;;;5250630;28;20580;-67
2021/11/20 10:55:01;;;;;;;19.80;3.47;;;11.00;99.90;;;;;;5249616;28;20197;-71
2021/11/20 10:58:09;;;;;;;20.10;3.60;;;11.00;99.90;;;;;;5249844;28;20221;-69
2021/11/20 11:01:35;;;;;;;23.77;4.23;;;10.90;99.90;;;;;;5248480;28;20527;-70
2021/11/20 11:04:26;;;;;;;18.83;3.27;;;10.80;99.90;;;;;;5204199;28;20357;-70
2021/11/20 11:07:00;;;;;;;16.57;3.73;;;10.90;99.90;;;;;;5249658;28;20216;-68
2021/11/20 11:09:57;;;;;;;23.73;3.60;;;10.90;99.90;;;;;;5248519;28;20209;-72
2021/11/20 11:12:50;;;;;;;19.23;3.30;;;10.90;99.90;;;;;;5247691;28;20664;-73
2021/11/20 11:15:59;;;;;;;21.47;3.40;;;10.90;99.90;;;;;;5249425;28;20637;-72
2021/11/20 11:18:44;;;;;;;16.73;3.03;;;10.90;99.90;;;;;;5247918;28;20227;-74
2021/11/20 11:21:42;;;;;;;13.63;3.37;;;11.00;99.90;;;;;;5248630;28;20209;-74
2021/11/20 11:24:38;;;;;;;12.77;3.00;;;11.00;99.90;;;;;;5249460;28;20217;-69
2021/11/20 11:27:23;;;;;;;19.13;3.10;;;11.00;99.90;;;;;;5247465;28;20224;-70
2021/11/20 11:30:04;;;;;;;12.90;2.93;;;11.00;99.90;;;;;;5248490;28;20200;-74
2021/11/20 11:32:41;;;;;;;17.30;3.40;;;11.00;99.90;;;;;;5246632;28;20231;-71
2021/11/20 11:35:35;;;;;;;14.70;2.70;;;11.10;99.90;;;;;;5245901;28;20331;-69
2021/11/20 11:38:42;;;;;;;11.37;2.87;;;11.10;99.90;;;;;;5229132;28;20190;-74
2021/11/20 11:41:39;;;;;;;16.80;2.97;;;11.20;99.90;;;;;;5225204;28;20202;-70
2021/11/20 11:44:30;;;;;;;13.43;2.70;;;11.20;99.90;;;;;;5229302;28;20221;-67
2021/11/20 11:47:30;;;;;;;13.07;2.67;;;11.20;99.90;;;;;;5250094;28;20201;-71
2021/11/20 11:50:17;;;;;;;12.20;2.60;;;11.20;99.90;;;;;;5250584;28;20232;-73
2021/11/20 11:53:11;;;;;;;13.10;2.80;;;11.20;99.90;;;;;;5250424;28;20215;-73
2021/11/20 11:55:50;;;;;;;13.93;2.33;;;11.10;99.90;;;;;;5249817;28;20205;-68
2021/11/20 11:58:31;;;;;;;11.63;2.50;;;11.10;99.90;;;;;;5249349;28;20193;-69
2021/11/20 12:01:14;;;;;;;9.40;2.00;;;11.10;99.90;;;;;;5249531;28;20209;-69
2021/11/20 12:04:23;;;;;;;7.27;2.17;;;11.00;99.90;;;;;;5248727;28;20268;-71
2021/11/20 12:07:45;;;;;;;9.50;2.47;;;10.80;99.90;;;;;;5247733;28;20201;-72
2021/11/20 12:10:23;;;;;;;12.37;2.60;;;10.70;99.90;;;;;;5248899;28;20221;-72
2021/11/20 12:13:04;;;;;;;13.67;3.03;;;10.70;99.90;;;;;;5249968;28;20205;-71
2021/11/20 12:15:46;;;;;;;11.47;3.27;;;10.60;99.90;;;;;;5228942;28;20324;-72
2021/11/20 12:18:39;;;;;;;12.33;3.03;;;10.50;99.90;;;;;;5229099;28;20255;-73
2021/11/20 12:21:26;;;;;;;11.50;2.60;;;10.50;99.90;;;;;;5229262;28;20240;-65
2021/11/20 12:24:10;;;;;;;11.40;3.17;;;10.40;99.90;;;;;;5228732;28;20553;-67
2021/11/20 12:26:45;;;;;;;8.67;2.90;;;10.40;99.90;;;;;;5230153;28;20519;-69
2021/11/20 12:29:41;;;;;;;7.37;2.97;;;10.30;99.90;;;;;;5229345;28;20615;-71
2021/11/20 12:32:21;;;;;;;6.03;2.80;;;10.20;99.90;;;;;;5228999;28;20201;-70
2021/11/20 12:35:02;;;;;;;11.80;3.20;;;10.10;99.90;;;;;;5229334;28;20521;-72
2021/11/20 12:38:07;;;;;;;9.27;3.23;;;10.10;99.90;;;;;;5228876;28;20209;-68
2021/11/20 12:40:49;;;;;;;8.27;2.63;;;10.00;99.90;;;;;;5228430;28;20311;-67
2021/11/20 12:43:42;;;;;;;7.93;2.97;;;9.90;99.90;;;;;;5244701;28;20355;-66
2021/11/20 12:46:26;;;;;;;10.03;3.87;;;9.90;99.90;;;;;;5228685;28;20235;-67
2021/11/20 12:49:01;;;;;;;8.57;3.27;;;9.90;99.90;;;;;;5244285;28;20253;-70
2021/11/20 12:51:51;;;;;;;7.63;2.87;;;9.80;99.90;;;;;;5236171;28;20220;-70
2021/11/20 12:54:43;;;;;;;8.63;3.17;;;9.80;99.90;;;;;;5228737;28;20511;-68
2021/11/20 12:57:30;;;;;;;6.33;3.23;;;9.80;99.90;;;;;;5248378;28;20228;-74
2021/11/20 13:00:08;;;;;;;9.37;3.30;;;9.90;99.90;;;;;;5249195;28;20205;-71
2021/11/20 13:02:52;;;;;;;5.70;2.60;;;9.90;99.90;;;;;;5248922;28;20232;-72
2021/11/20 13:05:55;;;;;;;5.43;2.30;;;9.90;99.90;;;;;;5250238;28;20257;-70
2021/11/20 13:08:38;;;;;;;4.07;2.23;;;9.90;99.90;;;;;;5252270;28;20236;-75
2021/11/20 13:11:16;;;;;;;3.33;1.80;;;10.00;99.90;;;;;;5250942;28;20200;-72
2021/11/20 13:14:06;;;;;;;4.03;1.70;;;9.90;99.90;;;;;;5251415;28;20531;-73
2021/11/20 13:17:03;;;;;;;3.13;1.40;;;10.00;99.90;;;;;;5269358;28;20200;-71
2021/11/20 13:20:19;;;;;;;5.83;1.70;;;10.00;99.90;;;;;;5245667;28;20314;-74
2021/11/20 13:23:22;;;;;;;4.20;1.83;;;10.00;99.90;;;;;;5243869;28;20224;-72
2021/11/20 13:26:01;;;;;;;4.03;1.60;;;10.00;99.90;;;;;;5238470;28;20203;-74
2021/11/20 13:28:40;;;;;;;4.43;1.97;;;10.00;99.90;;;;;;5245630;28;20231;-76
2021/11/20 13:31:17;;;;;;;3.63;1.70;;;10.00;99.90;;;;;;5246035;28;20207;-74
2021/11/20 13:33:50;;;;;;;3.40;1.80;;;10.00;99.90;;;;;;5246323;28;20224;-74
2021/11/20 13:36:22;;;;;;;3.00;1.83;;;10.00;99.90;;;;;;5248686;28;20295;-76
2021/11/20 13:38:58;;;;;;;4.27;1.93;;;10.00;99.90;;;;;;5233111;28;20334;-74
2021/11/20 13:41:30;;;;;;;3.47;1.93;;;10.00;99.90;;;;;;5250103;28;20197;-73
2021/11/20 13:44:05;;;;;;;4.70;2.20;;;10.00;99.90;;;;;;5254333;28;20225;-73
2021/11/20 13:46:41;;;;;;;3.87;1.90;;;10.00;99.90;;;;;;5252422;28;20197;-72
2021/11/20 13:49:16;;;;;;;4.97;2.23;;;10.00;99.90;;;;;;5249185;28;20525;-73